Time;durP1;ratioP1;P1;durP2;ratioP2;P2;SDS_P1;SDS_P2;PMS_P1;PMS_P2;Temp;Humidity;BMP_temperature;BMP_pressure;BME280_temperature;BME280_humidity;BME280_pressure;Samples;Min_cycle;Max_cycle;Signal;HPM_P1;HPM_P2
2023/11/03 00:02:12;;;;;;;1.17;0.17;;;;;;;8.24;42.00;97640.63;4995108;28;20033;-73
2023/11/03 00:04:38;;;;;;;0.57;0.10;;;;;;;8.38;42.19;97642.91;5000086;28;20022;-73
2023/11/03 00:07:04;;;;;;;0.90;0.05;;;;;;;8.06;42.70;97659.38;4994528;28;20650;-73
2023/11/03 00:09:37;;;;;;;1.63;0.30;;;;;;;8.21;42.54;97656.50;5007632;28;20021;-72
2023/11/03 00:12:06;;;;;;;3.25;0.10;;;;;;;8.08;42.38;97680.91;4994911;28;20124;-72
2023/11/03 00:14:31;;;;;;;1.15;0.00;;;;;;;7.61;43.65;97662.13;4991026;28;20030;-72
2023/11/03 00:16:57;;;;;;;3.45;0.10;;;;;;;8.31;42.37;97652.19;5000222;28;20045;-73
2023/11/03 00:19:25;;;;;;;0.08;0.00;;;;;;;8.09;42.90;97650.50;5002242;28;20125;-73
2023/11/03 00:21:54;;;;;;;0.63;0.00;;;;;;;7.86;42.83;97650.59;5003389;28;20045;-72
2023/11/03 00:24:20;;;;;;;0.17;0.00;;;;;;;8.14;42.35;97654.41;5004340;28;20034;-72
2023/11/03 00:26:47;;;;;;;0.82;0.00;;;;;;;8.14;42.43;97651.78;5001619;28;20045;-72
2023/11/03 00:29:15;;;;;;;0.40;0.00;;;;;;;8.20;42.10;97641.81;4996677;28;20060;-71
2023/11/03 00:31:47;;;;;;;0.47;0.00;;;;;;;7.93;42.88;97648.31;5005540;28;20025;-72
2023/11/03 00:34:13;;;;;;;;;;;;;;;8.14;42.69;97640.56;4995978;28;20046;-71
2023/11/03 00:36:40;;;;;;;1.23;0.00;;;;;;;8.00;43.16;97646.88;5018602;28;19963;-72
2023/11/03 00:39:07;;;;;;;1.10;0.00;;;;;;;7.72;43.97;97653.47;5012110;28;20132;-71
2023/11/03 00:41:33;;;;;;;1.15;0.57;;;;;;;8.00;43.98;97652.06;5004074;28;20050;-71
2023/11/03 00:44:01;;;;;;;0.30;0.00;;;;;;;7.90;44.02;97671.97;5005239;28;20065;-72
2023/11/03 00:46:27;;;;;;;1.90;0.00;;;;;;;7.89;44.53;97659.91;5001426;28;20059;-72
2023/11/03 00:48:54;;;;;;;1.95;0.10;;;;;;;7.01;46.39;97678.88;5004280;28;20038;-70
2023/11/03 00:51:19;;;;;;;2.70;0.00;;;;;;;7.13;46.36;97672.72;4990667;28;20074;-75
2023/11/03 00:53:45;;;;;;;0.08;0.00;;;;;;;7.22;45.84;97692.84;5003391;28;20124;-73
2023/11/03 00:56:10;;;;;;;0.10;0.00;;;;;;;6.76;46.54;97690.28;5001710;28;20046;-76
2023/11/03 00:58:36;;;;;;;0.00;0.00;;;;;;;6.95;46.12;97685.34;4991901;28;20121;-79
2023/11/03 01:01:03;;;;;;;0.00;0.00;;;;;;;7.06;46.02;97687.13;5002386;28;20034;-75
2023/11/03 01:03:29;;;;;;;0.30;0.00;;;;;;;7.38;45.33;97682.09;5018295;28;20638;-76
2023/11/03 01:05:54;;;;;;;0.20;0.00;;;;;;;7.35;45.88;97697.88;5004994;28;20033;-72
2023/11/03 01:08:22;;;;;;;0.00;0.00;;;;;;;6.56;47.96;97696.97;4996721;28;20033;-73
2023/11/03 01:10:49;;;;;;;0.25;0.10;;;;;;;6.09;50.13;97702.88;5004118;28;20025;-71
2023/11/03 01:13:15;;;;;;;1.90;0.00;;;;;;;5.94;51.64;97708.34;5004502;28;20049;-72
2023/11/03 01:15:43;;;;;;;1.27;0.75;;;;;;;6.09;51.67;97721.03;4999879;28;20138;-73
2023/11/03 01:18:09;;;;;;;0.08;0.00;;;;;;;5.96;53.01;97719.44;4984259;28;20557;-72
2023/11/03 01:20:37;;;;;;;1.27;0.00;;;;;;;5.43;54.36;97709.28;5002466;28;20105;-72
2023/11/03 01:23:07;;;;;;;0.20;0.00;;;;;;;5.70;53.12;97705.72;5015023;28;20129;-72
2023/11/03 01:25:32;;;;;;;0.00;0.00;;;;;;;5.29;54.02;97717.19;5018975;28;20574;-73
2023/11/03 01:27:59;;;;;;;0.17;0.00;;;;;;;4.52;56.50;97725.72;4989214;28;20064;-72
2023/11/03 01:30:28;;;;;;;1.35;0.00;;;;;;;4.97;55.37;97728.78;4998497;28;20033;-71
2023/11/03 01:32:54;;;;;;;0.22;0.00;;;;;;;4.48;57.63;97695.78;4999937;28;20029;-71
2023/11/03 01:35:20;;;;;;;0.00;0.00;;;;;;;4.83;57.20;97721.94;4999877;28;20110;-71
2023/11/03 01:37:46;;;;;;;0.05;0.00;;;;;;;4.71;57.83;97727.91;4985773;28;20046;-71
2023/11/03 01:40:14;;;;;;;2.05;0.00;;;;;;;4.69;57.73;97723.75;4996676;28;20098;-71
2023/11/03 01:42:40;;;;;;;1.05;0.40;;;;;;;4.53;59.18;97718.78;4999314;28;20070;-70
2023/11/03 01:45:06;;;;;;;0.00;0.00;;;;;;;4.51;59.09;97705.09;5013942;28;20124;-71
2023/11/03 01:47:32;;;;;;;1.27;0.05;;;;;;;4.62;58.90;97707.81;5007096;28;20469;-70
2023/11/03 01:49:59;;;;;;;0.82;0.00;;;;;;;4.13;59.87;97679.97;4996032;28;20536;-69
2023/11/03 01:52:25;;;;;;;1.27;0.00;;;;;;;4.29;60.40;97690.16;4986521;28;20601;-71
2023/11/03 01:54:51;;;;;;;0.20;0.00;;;;;;;4.37;60.64;97687.91;4994491;28;20033;-71
2023/11/03 01:57:18;;;;;;;0.10;0.00;;;;;;;4.51;60.04;97687.81;4995660;28;20044;-70
2023/11/03 01:59:46;;;;;;;0.00;0.00;;;;;;;4.35;60.71;97687.19;5009725;28;20116;-70
2023/11/03 02:02:13;;;;;;;0.10;0.00;;;;;;;4.18;61.57;97680.50;4995548;28;20464;-70
2023/11/03 02:04:39;;;;;;;4.03;0.00;;;;;;;4.11;61.73;97677.47;4999624;28;20111;-71
2023/11/03 02:07:05;;;;;;;0.10;0.00;;;;;;;4.18;62.21;97683.09;4999577;28;20389;-73
2023/11/03 02:09:30;;;;;;;0.63;0.00;;;;;;;4.29;62.01;97682.41;4997467;28;20350;-70
2023/11/03 02:11:55;;;;;;;4.55;0.15;;;;;;;4.47;61.55;97673.44;5003213;28;20057;-71
2023/11/03 02:14:22;;;;;;;0.43;0.00;;;;;;;4.38;61.84;97684.38;4995616;28;20487;-71
2023/11/03 02:16:48;;;;;;;0.08;0.00;;;;;;;4.46;61.86;97681.31;5007695;28;20042;-70
2023/11/03 02:19:13;;;;;;;1.33;0.08;;;;;;;4.23;63.21;97681.06;4996118;28;20056;-72
2023/11/03 02:21:41;;;;;;;2.30;0.10;;;;;;;4.32;62.95;97675.28;5008680;28;20030;-72
2023/11/03 02:24:08;;;;;;;1.98;0.00;;;;;;;4.09;64.03;97689.69;4997346;28;20587;-71
2023/11/03 02:26:34;;;;;;;1.35;0.17;;;;;;;4.46;62.95;97679.53;5000912;28;20055;-71
2023/11/03 02:29:01;;;;;;;5.72;0.32;;;;;;;4.38;63.58;97682.63;5002706;28;20590;-71
2023/11/03 02:31:26;;;;;;;0.95;0.10;;;;;;;4.65;63.21;97679.16;4999516;28;20551;-71
2023/11/03 02:33:53;;;;;;;0.28;0.10;;;;;;;4.54;63.35;97679.03;4999643;28;20081;-72
2023/11/03 02:36:18;;;;;;;1.95;0.10;;;;;;;4.70;63.27;97690.03;4999962;28;20038;-71
2023/11/03 02:38:45;;;;;;;0.63;0.10;;;;;;;4.53;63.41;97687.72;4991839;28;20045;-71
2023/11/03 02:41:10;;;;;;;0.75;0.13;;;;;;;4.76;63.04;97679.25;4997819;28;20072;-72
2023/11/03 02:43:36;;;;;;;1.13;0.10;;;;;;;4.42;63.93;97681.50;4999272;28;20560;-73
2023/11/03 02:46:01;;;;;;;0.63;0.13;;;;;;;4.81;62.68;97682.38;4998532;28;20396;-72
2023/11/03 02:48:27;;;;;;;0.55;0.10;;;;;;;4.80;62.85;97679.88;4999080;28;20041;-72
2023/11/03 02:50:52;;;;;;;0.50;0.15;;;;;;;4.73;63.68;97676.88;5009312;28;20091;-77
2023/11/03 02:53:18;;;;;;;2.30;0.20;;;;;;;4.90;62.30;97667.19;4987981;28;20045;-76
2023/11/03 02:55:44;;;;;;;0.98;0.13;;;;;;;5.03;62.27;97668.00;5002058;28;20029;-75
2023/11/03 02:58:09;;;;;;;0.95;0.30;;;;;;;5.27;61.64;97681.03;4998137;28;20366;-70
2023/11/03 03:00:36;;;;;;;0.55;0.10;;;;;;;5.36;61.10;97674.41;4991507;28;20067;-69
2023/11/03 03:03:05;;;;;;;1.10;0.30;;;;;;;5.26;61.05;97663.84;4999208;28;20108;-70
2023/11/03 03:05:32;;;;;;;0.32;0.10;;;;;;;5.39;60.59;97656.88;4996345;28;20025;-70
2023/11/03 03:07:57;;;;;;;1.60;0.40;;;;;;;5.06;61.43;97660.03;4998445;28;20049;-70
2023/11/03 03:10:23;;;;;;;0.85;0.20;;;;;;;5.36;60.89;97656.25;4995515;28;20676;-74
2023/11/03 03:12:48;;;;;;;0.47;0.20;;;;;;;5.00;61.23;97647.53;4985718;28;20520;-68
2023/11/03 03:15:14;;;;;;;4.32;0.32;;;;;;;4.75;62.33;97646.56;5004597;28;20107;-68
2023/11/03 03:17:42;;;;;;;1.10;0.30;;;;;;;4.72;62.23;97640.75;5004742;28;20044;-68
2023/11/03 03:20:07;;;;;;;0.52;0.20;;;;;;;5.14;61.01;97657.75;5004707;28;20042;-68
2023/11/03 03:22:33;;;;;;;1.05;0.20;;;;;;;5.35;60.35;97641.69;4995315;28;20038;-69
2023/11/03 03:24:58;;;;;;;0.55;0.25;;;;;;;5.02;61.02;97645.66;5000997;28;20041;-68
2023/11/03 03:27:24;;;;;;;0.55;0.03;;;;;;;5.22;60.44;97646.88;4996541;28;20042;-69
2023/11/03 03:29:49;;;;;;;7.70;0.70;;;;;;;5.37;60.32;97651.00;5002650;28;20622;-69
2023/11/03 03:32:15;;;;;;;1.65;0.15;;;;;;;5.35;60.04;97652.03;4998563;28;20614;-68
2023/11/03 03:34:40;;;;;;;1.23;0.47;;;;;;;5.41;60.23;97656.75;4999898;28;20037;-69
2023/11/03 03:37:06;;;;;;;4.45;0.30;;;;;;;5.45;60.01;97648.66;4998915;28;20042;-69
2023/11/03 03:39:31;;;;;;;0.40;0.10;;;;;;;5.34;60.36;97653.78;4994812;28;20038;-68
2023/11/03 03:41:57;;;;;;;1.05;0.20;;;;;;;5.34;60.26;97653.78;4999011;28;20147;-70
2023/11/03 03:44:22;;;;;;;2.83;0.30;;;;;;;5.66;59.60;97642.94;4995013;28;20045;-70
2023/11/03 03:46:48;;;;;;;1.60;0.25;;;;;;;5.12;61.01;97644.06;5000222;28;20053;-68
2023/11/03 03:49:14;;;;;;;0.90;0.20;;;;;;;5.24;60.48;97648.41;4995865;28;20034;-68
2023/11/03 03:51:39;;;;;;;1.05;0.20;;;;;;;5.29;60.69;97655.03;4999245;28;20722;-70
2023/11/03 03:54:07;;;;;;;0.40;0.10;;;;;;;5.01;61.29;97662.97;4997507;28;20301;-70
2023/11/03 03:56:33;;;;;;;1.70;0.30;;;;;;;5.40;60.38;97658.53;4982752;28;20396;-70
2023/11/03 03:58:58;;;;;;;1.50;0.20;;;;;;;5.55;59.57;97661.81;5001043;28;20048;-70
2023/11/03 04:01:23;;;;;;;3.55;0.45;;;;;;;5.42;60.09;97654.06;4997339;28;20578;-70
2023/11/03 04:03:49;;;;;;;0.82;0.20;;;;;;;5.35;60.19;97662.41;5015472;28;20033;-70
2023/11/03 04:06:15;;;;;;;0.45;0.13;;;;;;;5.14;61.08;97660.34;5002779;28;20049;-70
2023/11/03 04:08:41;;;;;;;0.75;0.47;;;;;;;5.28;60.68;97655.97;5001852;28;20050;-70
2023/11/03 04:11:06;;;;;;;1.45;0.20;;;;;;;5.46;60.10;97646.94;5003781;28;20070;-70
2023/11/03 04:13:33;;;;;;;1.95;0.30;;;;;;;5.43;59.88;97647.13;4999494;28;20038;-70
2023/11/03 04:15:58;;;;;;;1.55;0.20;;;;;;;5.64;59.78;97661.16;5004397;28;20076;-70
2023/11/03 04:18:26;;;;;;;0.88;0.30;;;;;;;5.75;59.03;97655.22;4998176;28;20758;-70
2023/11/03 04:20:51;;;;;;;5.18;0.40;;;;;;;5.68;59.66;97659.16;4988929;28;20466;-70
2023/11/03 04:23:17;;;;;;;3.80;0.30;;;;;;;5.69;59.03;97655.66;4998798;28;20045;-70
2023/11/03 04:25:44;;;;;;;2.67;0.20;;;;;;;5.74;59.29;97650.16;5003897;28;20036;-70
2023/11/03 04:28:12;;;;;;;0.60;0.22;;;;;;;5.57;59.73;97659.09;5002818;28;20053;-70
2023/11/03 04:30:38;;;;;;;0.47;0.10;;;;;;;5.75;59.22;97656.97;4999072;28;20151;-71
2023/11/03 04:33:03;;;;;;;1.33;0.20;;;;;;;5.61;59.06;97656.22;5002789;28;20074;-71
2023/11/03 04:35:29;;;;;;;1.10;0.20;;;;;;;5.72;59.00;97663.19;4997912;28;20449;-71
2023/11/03 04:37:54;;;;;;;2.65;0.75;;;;;;;5.70;59.23;97659.06;5007359;28;20034;-70
2023/11/03 04:40:21;;;;;;;0.40;0.20;;;;;;;5.67;59.12;97660.13;4999437;28;20037;-70
2023/11/03 04:42:52;;;;;;;0.73;0.20;;;;;;;5.79;58.89;97655.81;4991262;28;20124;-70
2023/11/03 04:45:17;;;;;;;1.52;0.30;;;;;;;5.20;60.27;97646.97;4987677;28;20087;-69
2023/11/03 04:47:45;;;;;;;1.70;0.20;;;;;;;5.81;58.85;97664.31;5002878;28;20403;-70
2023/11/03 04:50:14;;;;;;;1.23;0.40;;;;;;;5.83;58.53;97657.25;5012432;28;20099;-70
2023/11/03 04:52:39;;;;;;;3.65;0.20;;;;;;;5.77;58.69;97665.47;4983148;28;20033;-70
2023/11/03 04:55:08;;;;;;;2.17;0.38;;;;;;;5.86;58.45;97664.84;5006508;28;20038;-70
2023/11/03 04:57:35;;;;;;;3.40;0.20;;;;;;;5.85;58.35;97678.72;4998296;28;21804;-70
2023/11/03 05:00:01;;;;;;;1.08;0.30;;;;;;;5.73;58.77;97684.78;5011926;28;20151;-69
2023/11/03 05:02:28;;;;;;;1.88;0.65;;;;;;;5.69;58.69;97678.16;5001486;28;20069;-68
2023/11/03 05:04:54;;;;;;;3.10;0.30;;;;;;;5.72;58.48;97683.09;5002515;28;20037;-69
2023/11/03 05:07:20;;;;;;;0.90;0.22;;;;;;;5.90;57.79;97679.19;4997615;28;20042;-69
2023/11/03 05:09:46;;;;;;;0.30;0.10;;;;;;;5.96;57.76;97683.97;5001116;28;20087;-69
2023/11/03 05:12:14;;;;;;;0.80;0.10;;;;;;;5.86;58.13;97680.38;5006118;28;20045;-74
2023/11/03 05:14:39;;;;;;;1.45;0.10;;;;;;;5.77;58.36;97671.50;5008447;28;20079;-75
2023/11/03 05:17:07;;;;;;;2.20;0.20;;;;;;;5.82;58.14;97665.97;5004186;28;20412;-75
2023/11/03 05:19:35;;;;;;;3.08;0.22;;;;;;;5.92;57.75;97673.91;4991641;28;20586;-75
2023/11/03 05:22:01;;;;;;;0.60;0.30;;;;;;;5.73;58.26;97677.00;4988075;28;20531;-74
2023/11/03 05:24:27;;;;;;;0.40;0.10;;;;;;;6.04;57.57;97678.22;5008237;28;20046;-75
2023/11/03 05:26:53;;;;;;;1.02;0.20;;;;;;;5.99;57.26;97681.13;5004688;28;20099;-69
2023/11/03 05:29:22;;;;;;;0.95;0.32;;;;;;;6.01;57.18;97674.06;5002875;28;20050;-69
2023/11/03 05:31:50;;;;;;;3.55;0.75;;;;;;;6.04;57.45;97681.66;4999678;28;20044;-69
2023/11/03 05:34:16;;;;;;;0.95;0.10;;;;;;;5.82;57.61;97684.13;5004814;28;20033;-70
2023/11/03 05:36:42;;;;;;;5.25;0.50;;;;;;;5.91;57.54;97673.09;4997769;28;20056;-68
2023/11/03 05:39:10;;;;;;;5.43;0.25;;;;;;;5.76;57.46;97685.38;5003880;28;20072;-69
2023/11/03 05:41:38;;;;;;;0.35;0.10;;;;;;;6.01;57.37;97678.44;4997125;28;20025;-69
2023/11/03 05:44:04;;;;;;;1.48;0.20;;;;;;;6.00;57.09;97677.63;4999150;28;20037;-69
2023/11/03 05:46:31;;;;;;;0.88;0.17;;;;;;;5.99;57.25;97675.94;4997394;28;20053;-69
2023/11/03 05:48:56;;;;;;;0.68;0.10;;;;;;;6.29;56.68;97672.94;5001250;28;20137;-69
2023/11/03 05:51:24;;;;;;;2.40;0.22;;;;;;;6.17;57.02;97683.34;4998616;28;20030;-72
2023/11/03 05:53:50;;;;;;;3.10;0.43;;;;;;;6.08;57.12;97684.81;4999030;28;20141;-71
2023/11/03 05:56:16;;;;;;;4.40;0.45;;;;;;;6.32;56.31;97697.81;5003950;28;20040;-74
2023/11/03 05:58:42;;;;;;;0.38;0.10;;;;;;;5.87;57.47;97692.41;4997150;28;20037;-76
2023/11/03 06:01:08;;;;;;;2.03;0.50;;;;;;;5.62;58.35;97701.91;5002314;28;20037;-75
2023/11/03 06:03:37;;;;;;;0.68;0.10;;;;;;;5.93;57.23;97707.50;4989813;28;20427;-71
2023/11/03 06:06:09;;;;;;;0.30;0.10;;;;;;;6.00;57.69;97703.53;5001267;28;20038;-71
2023/11/03 06:08:34;;;;;;;1.38;0.25;;;;;;;6.33;56.59;97704.69;4996227;28;20038;-72
2023/11/03 06:11:00;;;;;;;3.83;0.30;;;;;;;6.06;56.97;97707.44;5008656;28;20087;-74
2023/11/03 06:13:25;;;;;;;0.43;0.15;;;;;;;5.96;57.11;97717.66;4999149;28;20038;-70
2023/11/03 06:15:51;;;;;;;1.02;0.10;;;;;;;5.98;57.28;97718.38;5005898;28;20097;-72
2023/11/03 06:18:16;;;;;;;1.02;0.20;;;;;;;6.17;56.92;97714.47;5000542;28;20076;-72
2023/11/03 06:20:41;;;;;;;2.63;0.10;;;;;;;6.09;56.88;97721.03;5004532;28;20051;-68
2023/11/03 06:23:08;;;;;;;0.25;0.15;;;;;;;6.25;56.74;97722.53;5001116;28;20037;-68
2023/11/03 06:25:34;;;;;;;1.35;0.40;;;;;;;5.94;57.43;97735.09;4996039;28;20026;-68
2023/11/03 06:27:59;;;;;;;0.90;0.20;;;;;;;6.18;56.70;97732.50;4997704;28;20044;-68
2023/11/03 06:30:25;;;;;;;2.38;0.20;;;;;;;6.25;56.24;97732.91;4999693;28;20117;-69
2023/11/03 06:32:50;;;;;;;4.80;0.40;;;;;;;6.17;57.11;97737.78;4996726;28;20490;-68
2023/11/03 06:35:16;;;;;;;0.88;0.20;;;;;;;5.70;58.02;97742.00;4999263;28;20515;-70
2023/11/03 06:37:42;;;;;;;3.03;0.32;;;;;;;6.04;57.67;97750.84;4994511;28;20656;-70
2023/11/03 06:40:10;;;;;;;1.15;0.25;;;;;;;5.84;58.15;97742.69;5000297;28;20041;-70
2023/11/03 06:42:39;;;;;;;2.42;0.25;;;;;;;6.17;58.23;97755.94;4995659;28;20045;-69
2023/11/03 06:45:08;;;;;;;3.70;0.30;;;;;;;5.95;58.53;97760.09;5000610;28;20041;-66
2023/11/03 06:47:35;;;;;;;1.85;0.20;;;;;;;5.56;59.84;97761.91;4986033;28;20057;-66
2023/11/03 06:50:01;;;;;;;1.55;0.10;;;;;;;5.98;58.47;97766.81;4997666;28;20128;-66
2023/11/03 06:52:29;;;;;;;0.73;0.20;;;;;;;6.00;58.67;97765.75;4994617;28;20681;-69
2023/11/03 06:54:55;;;;;;;2.50;0.40;;;;;;;5.91;59.02;97774.19;5014877;28;20073;-68
2023/11/03 06:57:20;;;;;;;1.45;0.47;;;;;;;5.65;59.89;97787.19;4998767;28;20076;-66
2023/11/03 06:59:46;;;;;;;3.50;0.30;;;;;;;5.79;59.23;97785.41;4993996;28;20038;-70
2023/11/03 07:02:12;;;;;;;2.15;0.50;;;;;;;6.14;58.13;97787.28;4998895;28;20470;-70
2023/11/03 07:04:38;;;;;;;4.05;0.20;;;;;;;5.47;59.98;97778.09;4994821;28;20134;-72
2023/11/03 07:07:04;;;;;;;1.17;0.50;;;;;;;5.58;59.67;97785.94;5000470;28;20038;-76
2023/11/03 07:09:31;;;;;;;3.88;0.50;;;;;;;5.76;59.78;97788.22;4999044;28;20526;-71
2023/11/03 07:11:56;;;;;;;1.10;0.30;;;;;;;5.69;59.63;97794.75;4989449;28;20076;-71
2023/11/03 07:14:24;;;;;;;2.70;0.30;;;;;;;5.91;58.68;97791.50;4999691;28;20139;-71
2023/11/03 07:16:53;;;;;;;1.60;0.40;;;;;;;5.88;58.63;97803.75;5007190;28;20034;-72
2023/11/03 07:19:20;;;;;;;0.50;0.20;;;;;;;5.59;59.29;97795.41;4998374;28;20026;-73
2023/11/03 07:21:49;;;;;;;0.68;0.20;;;;;;;6.04;58.25;97808.69;4994896;28;21181;-69
2023/11/03 07:24:16;;;;;;;1.75;0.30;;;;;;;6.07;57.97;97808.47;5008154;28;20069;-69
2023/11/03 07:26:43;;;;;;;3.58;0.30;;;;;;;6.33;57.78;97811.03;4994886;28;20037;-69
2023/11/03 07:29:09;;;;;;;1.65;0.30;;;;;;;6.37;57.78;97809.84;5006286;28;20101;-69
2023/11/03 07:31:41;;;;;;;3.53;0.30;;;;;;;6.02;58.64;97805.38;4995301;28;20038;-71
2023/11/03 07:34:07;;;;;;;0.63;0.20;;;;;;;5.52;59.87;97812.28;4998557;28;20096;-69
2023/11/03 07:36:33;;;;;;;0.25;0.10;;;;;;;5.91;58.72;97813.06;4997376;28;20095;-68
2023/11/03 07:39:06;;;;;;;2.63;0.22;;;;;;;6.50;57.34;97818.41;4996512;28;20046;-69
2023/11/03 07:41:33;;;;;;;1.58;0.20;;;;;;;6.43;57.05;97830.16;4981838;28;20041;-67
2023/11/03 07:44:00;;;;;;;2.25;0.30;;;;;;;6.07;58.12;97833.56;4998010;28;20044;-66
2023/11/03 07:46:30;;;;;;;4.35;0.40;;;;;;;5.63;58.92;97825.31;4997966;28;20026;-71
2023/11/03 07:48:57;;;;;;;0.60;0.17;;;;;;;5.84;59.09;97835.19;4990544;28;20049;-67
2023/11/03 07:51:26;;;;;;;1.92;0.10;;;;;;;5.71;60.11;97842.13;4999145;28;20093;-71
2023/11/03 07:53:53;;;;;;;1.63;0.32;;;;;;;6.20;58.74;97844.75;4987256;28;20121;-71
2023/11/03 07:56:19;;;;;;;6.82;0.30;;;;;;;6.20;59.27;97846.50;5000651;28;20163;-70
2023/11/03 07:58:48;;;;;;;1.30;0.22;;;;;;;5.86;59.67;97841.09;5001147;28;20128;-72
2023/11/03 08:01:16;;;;;;;0.47;0.20;;;;;;;6.24;58.92;97845.38;4998317;28;20125;-71
2023/11/03 08:03:43;;;;;;;0.68;0.30;;;;;;;6.06;58.93;97845.72;4985927;28;20049;-70
2023/11/03 08:06:09;;;;;;;0.30;0.20;;;;;;;6.41;58.11;97850.19;4997978;28;20025;-69
2023/11/03 08:08:37;;;;;;;1.20;0.28;;;;;;;6.31;58.51;97851.81;4995948;28;20042;-70
2023/11/03 08:11:04;;;;;;;2.83;0.30;;;;;;;5.84;59.13;97858.50;4997030;28;20190;-70
2023/11/03 08:13:30;;;;;;;0.68;0.25;;;;;;;5.97;59.26;97864.50;5002068;28;20117;-70
2023/11/03 08:15:59;;;;;;;1.15;0.30;;;;;;;6.23;58.89;97859.25;4997956;28;20037;-70
2023/11/03 08:18:27;;;;;;;1.85;0.20;;;;;;;6.28;58.69;97872.75;5004476;28;20056;-70
2023/11/03 08:20:52;;;;;;;3.80;0.30;;;;;;;5.90;59.44;97873.63;4998247;28;20045;-69
2023/11/03 08:23:20;;;;;;;3.00;0.40;;;;;;;5.88;59.76;97865.97;4996812;28;20034;-69
2023/11/03 08:25:46;;;;;;;3.53;0.57;;;;;;;6.07;59.61;97870.69;4988455;28;20034;-70
2023/11/03 08:28:14;;;;;;;2.35;0.55;;;;;;;6.11;59.49;97875.69;4996941;28;20057;-70
2023/11/03 08:30:45;;;;;;;5.70;1.02;;;;;;;6.43;59.17;97876.03;4997650;28;20030;-69
2023/11/03 08:33:12;;;;;;;2.05;0.47;;;;;;;6.43;59.27;97884.66;4995808;28;20228;-69
2023/11/03 08:35:38;;;;;;;2.90;0.80;;;;;;;6.48;58.89;97898.16;4996453;28;20387;-70
2023/11/03 08:38:06;;;;;;;7.03;0.30;;;;;;;6.45;58.75;97887.16;4995795;28;20045;-69
2023/11/03 08:40:31;;;;;;;1.80;0.30;;;;;;;6.63;58.76;97887.59;4996720;28;20029;-69
2023/11/03 08:42:56;;;;;;;1.17;0.35;;;;;;;6.83;57.73;97900.00;4999863;28;20049;-69
2023/11/03 08:45:23;;;;;;;3.17;0.50;;;;;;;6.75;58.17;97897.09;5008781;28;20500;-69
2023/11/03 08:47:50;;;;;;;1.52;0.73;;;;;;;6.77;57.62;97903.00;5001198;28;20083;-70
2023/11/03 08:50:16;;;;;;;1.48;0.50;;;;;;;6.32;58.67;97899.31;5002582;28;20037;-69
2023/11/03 08:52:47;;;;;;;0.93;0.32;;;;;;;6.34;58.47;97900.03;4997576;28;20148;-70
2023/11/03 08:55:14;;;;;;;2.55;0.43;;;;;;;6.38;58.73;97899.72;5002368;28;20650;-69
2023/11/03 08:57:41;;;;;;;1.13;0.60;;;;;;;6.93;56.91;97909.69;4997442;28;20045;-68
2023/11/03 09:00:09;;;;;;;1.25;0.20;;;;;;;6.96;57.17;97917.28;5002755;28;20042;-69
2023/11/03 09:02:36;;;;;;;1.83;0.50;;;;;;;6.64;57.82;97915.22;5003545;28;20045;-69
2023/11/03 09:05:03;;;;;;;2.83;0.65;;;;;;;6.56;58.30;97920.94;4999286;28;20026;-70
2023/11/03 09:07:29;;;;;;;1.05;0.30;;;;;;;6.32;58.78;97926.09;5004273;28;20045;-69
2023/11/03 09:09:55;;;;;;;0.93;0.40;;;;;;;6.49;58.14;97932.69;4997881;28;20030;-69
2023/11/03 09:12:23;;;;;;;3.20;0.63;;;;;;;6.19;59.35;97935.63;4985169;28;20045;-70
2023/11/03 09:14:49;;;;;;;4.10;0.80;;;;;;;6.87;57.76;97937.78;4997073;28;20050;-70
2023/11/03 09:17:15;;;;;;;2.22;0.60;;;;;;;6.80;57.85;97951.31;5005852;28;20124;-69
2023/11/03 09:19:41;;;;;;;1.38;0.60;;;;;;;6.18;59.99;97950.34;4996959;28;20033;-70
2023/11/03 09:22:07;;;;;;;2.17;0.47;;;;;;;6.81;58.52;97951.19;4999879;28;20048;-69
2023/11/03 09:24:33;;;;;;;2.33;0.30;;;;;;;7.15;57.93;97964.34;5007982;28;20033;-69
2023/11/03 09:26:59;;;;;;;3.80;0.73;;;;;;;6.91;58.12;97962.59;5007105;28;20497;-69
2023/11/03 09:29:24;;;;;;;1.85;0.50;;;;;;;6.70;59.01;97961.50;5000899;28;20051;-69
2023/11/03 09:31:51;;;;;;;0.70;0.30;;;;;;;6.87;58.44;97963.75;4998393;28;20045;-70
2023/11/03 09:34:16;;;;;;;2.50;0.40;;;;;;;6.59;59.21;97977.81;4997623;28;20055;-69
2023/11/03 09:36:42;;;;;;;3.30;0.65;;;;;;;6.34;60.44;97981.28;4998149;28;20112;-70
2023/11/03 09:39:09;;;;;;;5.97;0.52;;;;;;;6.56;59.41;97985.81;5001641;28;20049;-69
2023/11/03 09:41:43;;;;;;;2.28;0.45;;;;;;;6.78;59.39;97992.13;4999330;28;20099;-69
2023/11/03 09:44:09;;;;;;;4.00;0.40;;;;;;;7.05;57.99;97997.13;4975667;28;20042;-67
2023/11/03 09:46:35;;;;;;;2.72;0.40;;;;;;;6.93;58.41;97992.78;5000920;28;20033;-68
2023/11/03 09:49:01;;;;;;;3.15;0.35;;;;;;;7.26;57.84;97995.56;5000398;28;20050;-69
2023/11/03 09:51:29;;;;;;;6.28;0.43;;;;;;;6.90;58.79;98002.44;4997983;28;20026;-66
2023/11/03 09:53:59;;;;;;;1.73;0.50;;;;;;;6.85;58.86;97998.53;4994457;28;20997;-69
2023/11/03 09:56:26;;;;;;;1.30;0.47;;;;;;;6.49;59.61;98006.19;4998438;28;20044;-70
2023/11/03 09:58:53;;;;;;;3.50;0.68;;;;;;;6.98;57.85;98007.13;4995513;28;20123;-68
2023/11/03 10:01:20;;;;;;;6.75;0.75;;;;;;;7.13;58.16;98010.38;4996427;28;20595;-68
2023/11/03 10:03:47;;;;;;;2.13;0.65;;;;;;;6.97;57.91;98021.03;4996020;28;20050;-66
2023/11/03 10:06:13;;;;;;;2.65;0.80;;;;;;;6.52;59.42;98019.88;4995172;28;20684;-67
2023/11/03 10:08:39;;;;;;;4.03;1.58;;;;;;;7.22;57.96;98017.53;4995370;28;20041;-69
2023/11/03 10:11:05;;;;;;;5.38;0.57;;;;;;;7.16;57.69;98015.38;4996449;28;20033;-71
2023/11/03 10:13:33;;;;;;;2.08;0.22;;;;;;;7.40;57.04;98014.53;4999659;28;20415;-70
2023/11/03 10:16:01;;;;;;;5.55;1.15;;;;;;;7.21;57.73;98017.63;4994378;28;20645;-68
2023/11/03 10:18:27;;;;;;;3.83;1.15;;;;;;;7.29;57.49;98023.94;4997084;28;20068;-68
2023/11/03 10:20:56;;;;;;;3.33;0.80;;;;;;;8.04;55.53;98015.03;4995482;28;20315;-67
2023/11/03 10:23:22;;;;;;;1.83;0.38;;;;;;;7.52;56.50;98008.47;4986112;28;20046;-68
2023/11/03 10:25:52;;;;;;;1.80;0.60;;;;;;;7.26;57.02;98026.75;4990793;28;20034;-68
2023/11/03 10:28:21;;;;;;;1.92;0.45;;;;;;;7.56;56.62;98030.72;4996635;28;20707;-69
2023/11/03 10:30:55;;;;;;;2.60;0.70;;;;;;;7.20;57.42;98032.41;4994997;28;20072;-69
2023/11/03 10:33:22;;;;;;;3.05;0.82;;;;;;;7.05;57.73;98038.69;4994582;28;20611;-70
2023/11/03 10:35:50;;;;;;;9.10;0.65;;;;;;;7.41;57.12;98042.19;4992054;28;20611;-69
2023/11/03 10:38:18;;;;;;;4.85;0.63;;;;;;;7.74;56.48;98057.97;4995153;28;20052;-70
2023/11/03 10:40:44;;;;;;;22.92;1.30;;;;;;;7.18;57.74;98049.88;4992907;28;20617;-69
2023/11/03 10:43:15;;;;;;;3.22;0.50;;;;;;;7.61;56.58;98067.59;4994822;28;20049;-68
2023/11/03 10:45:51;;;;;;;2.42;0.40;;;;;;;7.62;56.84;98074.44;4990451;28;20034;-69
2023/11/03 10:48:31;;;;;;;10.82;0.88;;;;;;;7.52;56.68;98079.47;5001497;28;20045;-70
2023/11/03 10:51:30;;;;;;;4.07;0.70;;;;;;;7.68;56.82;98081.81;4994044;28;20217;-70
2023/11/03 10:54:10;;;;;;;6.20;0.68;;;;;;;8.21;55.79;98088.41;4994589;28;20029;-70
2023/11/03 10:56:37;;;;;;;7.80;0.65;;;;;;;7.89;56.22;98101.97;5002846;28;20034;-70
2023/11/03 10:59:04;;;;;;;4.53;0.88;;;;;;;8.07;55.56;98102.41;4988597;28;20077;-69
2023/11/03 11:01:41;;;;;;;5.00;0.52;;;;;;;7.92;56.07;98106.97;4989705;28;20045;-70
2023/11/03 11:04:18;;;;;;;2.03;0.45;;;;;;;7.84;56.15;98099.72;4994044;28;20185;-68
2023/11/03 11:06:50;;;;;;;5.07;0.70;;;;;;;8.06;54.83;98098.97;4993651;28;20033;-70
2023/11/03 11:09:23;;;;;;;5.72;0.68;;;;;;;8.70;53.91;98102.91;4996832;28;20038;-68
2023/11/03 11:11:50;;;;;;;1.55;0.52;;;;;;;8.20;54.65;98108.34;4993479;28;20050;-69
2023/11/03 11:14:20;;;;;;;3.65;0.93;;;;;;;8.86;53.27;98113.03;5002742;28;20087;-70
2023/11/03 11:16:46;;;;;;;2.20;0.68;;;;;;;8.36;54.13;98113.28;4979997;28;20045;-70
2023/11/03 11:19:14;;;;;;;2.85;1.02;;;;;;;8.81;53.26;98121.19;4996684;28;20037;-70
2023/11/03 11:21:48;;;;;;;7.45;0.93;;;;;;;8.85;53.47;98122.63;4995096;28;20104;-68
2023/11/03 11:24:20;;;;;;;2.17;0.60;;;;;;;8.90;52.95;98130.06;4995591;28;20104;-68
2023/11/03 11:26:47;;;;;;;7.72;1.17;;;;;;;9.19;52.20;98125.22;4989882;28;20030;-70
2023/11/03 11:29:26;;;;;;;4.72;0.52;;;;;;;8.86;52.80;98126.03;4994940;28;20040;-69
2023/11/03 11:31:52;;;;;;;3.92;0.60;;;;;;;9.07;52.21;98124.38;4990478;28;20030;-70
2023/11/03 11:34:19;;;;;;;6.00;0.95;;;;;;;8.71;53.07;98130.63;4993522;28;20503;-69
2023/11/03 11:36:47;;;;;;;5.20;1.17;;;;;;;7.98;54.55;98137.75;5000612;28;20060;-69
2023/11/03 11:39:17;;;;;;;11.63;0.95;;;;;;;8.85;52.61;98137.38;4996143;28;20175;-69
2023/11/03 11:41:53;;;;;;;3.85;0.25;;;;;;;8.68;52.92;98146.47;4999423;28;20210;-69